createdAt,value
2022-08-26T00:00:09.056Z,23.22
2022-08-26T00:05:11.609Z,23.23
2022-08-26T00:10:13.294Z,23.12
2022-08-26T00:15:18.306Z,23.12
2022-08-26T00:20:24.740Z,23.11
2022-08-26T00:25:27.720Z,23.08
2022-08-26T00:30:30.924Z,23.05
2022-08-26T00:35:33.808Z,22.87
2022-08-26T00:40:43.199Z,22.81
2022-08-26T00:45:49.688Z,22.77
2022-08-26T00:50:56.374Z,22.75
2022-08-26T00:56:04.805Z,22.50
2022-08-26T01:01:07.065Z,22.54
2022-08-26T01:06:12.529Z,22.43
2022-08-26T01:11:15.758Z,22.38
2022-08-26T01:16:17.944Z,22.27
2022-08-26T01:21:35.278Z,22.38
2022-08-26T01:26:43.585Z,22.13
2022-08-26T01:31:49.924Z,22.22
2022-08-26T01:36:59.859Z,22.15
2022-08-26T01:42:03.521Z,22.07
2022-08-26T01:47:06.621Z,22.03
2022-08-26T01:52:09.961Z,22.06
2022-08-26T01:57:14.291Z,22.05
2022-08-26T02:02:17.670Z,21.87
2022-08-26T02:07:21.606Z,21.85
2022-08-26T02:12:23.421Z,21.76
2022-08-26T02:17:33.591Z,21.77
2022-08-26T02:22:36.304Z,21.73
2022-08-26T02:27:37.896Z,21.60
2022-08-26T02:32:40.336Z,21.54
2022-08-26T02:37:43.062Z,21.61
2022-08-26T02:42:44.584Z,21.54
2022-08-26T02:47:46.515Z,21.38
2022-08-26T02:52:48.634Z,21.42
2022-08-26T02:57:50.148Z,21.26
2022-08-26T03:02:53.309Z,21.17
2022-08-26T03:07:54.824Z,21.10
2022-08-26T03:12:56.745Z,21.03
2022-08-26T03:17:59.869Z,20.89
2022-08-26T03:23:01.383Z,20.93
2022-08-26T03:28:03.446Z,20.95
2022-08-26T03:33:05.264Z,20.90
2022-08-26T03:38:07.614Z,20.87
2022-08-26T03:43:10.302Z,20.97
2022-08-26T03:48:12.083Z,20.96
2022-08-26T03:53:13.670Z,20.97
2022-08-26T03:58:17.732Z,20.95
2022-08-26T04:03:19.442Z,21.13
2022-08-26T04:08:21.049Z,21.13
2022-08-26T04:13:23.414Z,21.19
2022-08-26T04:18:25.250Z,21.23
2022-08-26T04:23:46.889Z,21.16
2022-08-26T04:28:50.422Z,21.04
2022-08-26T04:33:51.848Z,21.21
2022-08-26T04:38:54.931Z,21.18
2022-08-26T04:44:02.392Z,21.32
2022-08-26T04:49:04.628Z,21.20
2022-08-26T04:54:07.088Z,21.24
2022-08-26T04:59:16.980Z,21.25
2022-08-26T05:04:23.810Z,21.18
2022-08-26T05:09:25.560Z,21.26
2022-08-26T05:14:38.689Z,21.22
2022-08-26T05:20:07.547Z,21.17
2022-08-26T05:25:09.443Z,21.17
2022-08-26T05:35:49.882Z,21.33
2022-08-26T05:52:25.884Z,21.46
2022-08-26T06:10:15.385Z,21.65
2022-08-26T06:16:10.241Z,21.75
2022-08-26T06:49:26.839Z,21.68
2022-08-26T06:54:55.744Z,21.70
2022-08-26T07:00:03.992Z,21.80
2022-08-26T07:05:08.686Z,21.66
2022-08-26T07:10:10.703Z,21.73
2022-08-26T07:15:27.123Z,21.74
2022-08-26T07:20:32.777Z,21.88
2022-08-26T07:37:00.215Z,22.13
2022-08-26T07:42:08.004Z,22.12
2022-08-26T07:47:25.213Z,22.02
2022-08-26T07:52:32.337Z,22.07
2022-08-26T07:57:44.264Z,21.91
2022-08-26T08:02:52.158Z,21.97
2022-08-26T08:08:26.522Z,22.02
2022-08-26T08:13:20.982Z,22.09
2022-08-26T08:18:32.275Z,22.11
2022-08-26T08:23:33.942Z,22.14
2022-08-26T08:34:45.374Z,22.05
2022-08-26T08:40:11.127Z,21.99
2022-08-26T08:45:23.068Z,21.96
2022-08-26T08:50:50.759Z,22.09
2022-08-26T08:55:54.853Z,21.83
2022-08-26T09:01:04.705Z,22.01
2022-08-26T09:06:08.717Z,22.24
2022-08-26T09:11:10.632Z,22.15
2022-08-26T09:16:24.445Z,22.21
2022-08-26T09:21:26.710Z,22.16
2022-08-26T09:26:39.396Z,22.22
2022-08-26T09:31:40.832Z,22.37
2022-08-26T09:36:43.762Z,22.32
2022-08-26T09:42:00.993Z,22.45
2022-08-26T09:47:06.707Z,22.46
2022-08-26T09:52:20.519Z,22.61
2022-08-26T09:57:27.926Z,22.65
2022-08-26T10:02:33.499Z,22.86
2022-08-26T10:07:57.903Z,23.03
2022-08-26T10:13:23.967Z,22.84
2022-08-26T10:18:34.129Z,22.97
2022-08-26T10:23:43.529Z,23.02
2022-08-26T10:29:01.579Z,23.17
2022-08-26T10:34:03.064Z,23.28
2022-08-26T10:39:09.630Z,23.12
2022-08-26T10:44:17.658Z,23.10
2022-08-26T10:49:19.080Z,23.08
2022-08-26T10:54:53.359Z,23.27
2022-08-26T11:00:11.072Z,23.38
2022-08-26T11:05:20.854Z,23.30
2022-08-26T11:10:22.313Z,23.47
2022-08-26T11:15:26.724Z,23.45
2022-08-26T11:20:42.074Z,23.64
2022-08-26T11:25:55.965Z,23.37
2022-08-26T11:30:58.563Z,23.57
2022-08-26T11:36:00.142Z,24.02
2022-08-26T11:41:20.743Z,23.97
2022-08-26T11:46:27.998Z,24.05
2022-08-26T11:51:29.555Z,24.14
2022-08-26T11:56:35.826Z,24.30
2022-08-26T12:01:40.458Z,24.53
2022-08-26T12:06:49.700Z,25.12
2022-08-26T12:11:52.710Z,25.59
2022-08-26T12:17:13.156Z,25.52
2022-08-26T12:22:33.945Z,25.05
2022-08-26T12:27:44.288Z,24.85
2022-08-26T12:32:57.839Z,24.43
2022-08-26T12:38:00.092Z,24.31
2022-08-26T12:54:57.032Z,24.08
2022-08-26T13:00:26.237Z,24.04
2022-08-26T13:05:36.054Z,24.18
2022-08-26T13:11:07.868Z,23.94
2022-08-26T13:16:09.337Z,23.79
2022-08-26T13:21:20.353Z,24.05
2022-08-26T13:26:21.990Z,23.86
2022-08-26T13:31:27.082Z,24.16
2022-08-26T13:36:28.883Z,24.13
2022-08-26T13:41:30.297Z,24.14
2022-08-26T13:46:32.134Z,24.19
2022-08-26T13:51:34.199Z,24.22
2022-08-26T13:56:36.839Z,24.50
2022-08-26T14:01:38.532Z,24.56
2022-08-26T14:06:40.042Z,24.63
2022-08-26T14:11:50.933Z,24.13
2022-08-26T14:17:03.120Z,23.98
2022-08-26T14:40:16.039Z,24.20
2022-08-26T14:45:26.911Z,24.08
2022-08-26T14:50:28.464Z,23.97
2022-08-26T14:55:34.326Z,23.84
2022-08-26T15:00:36.428Z,24.20
2022-08-26T15:05:38.046Z,24.56
2022-08-26T15:16:14.883Z,25.06
2022-08-26T15:21:40.473Z,25.23
2022-08-26T15:26:43.446Z,25.47
2022-08-26T15:31:58.692Z,25.22
2022-08-26T15:37:05.898Z,25.26
2022-08-26T15:42:07.368Z,25.06
2022-08-26T15:53:31.573Z,24.70
2022-08-26T15:58:38.514Z,24.70
2022-08-26T16:03:41.879Z,24.59
2022-08-26T16:08:43.747Z,24.30
2022-08-26T16:31:27.789Z,24.41
2022-08-26T16:36:32.404Z,24.40
2022-08-26T16:41:44.307Z,24.38
2022-08-26T16:53:27.280Z,24.05
2022-08-26T16:58:28.757Z,24.09
2022-08-26T17:03:30.142Z,23.87
2022-08-26T17:08:31.823Z,23.79
2022-08-26T17:13:35.207Z,23.69
2022-08-26T17:18:37.817Z,23.64
2022-08-26T17:23:40.981Z,23.59
2022-08-26T17:28:42.414Z,23.52
2022-08-26T17:33:47.636Z,23.44
2022-08-26T17:38:50.391Z,23.36
2022-08-26T17:43:55.877Z,23.27
2022-08-26T17:48:57.322Z,23.19
2022-08-26T17:53:58.789Z,23.07
2022-08-26T17:59:03.521Z,23.10
2022-08-26T18:04:05.849Z,22.98
2022-08-26T18:09:07.532Z,22.96
2022-08-26T18:14:09.181Z,22.87
2022-08-26T18:19:10.754Z,22.77
2022-08-26T18:24:14.163Z,22.75
2022-08-26T18:29:17.708Z,22.72
2022-08-26T18:34:19.343Z,22.63
2022-08-26T18:39:23.574Z,22.65
2022-08-26T18:44:25.269Z,22.65
2022-08-26T18:49:26.787Z,22.55
2022-08-26T18:54:28.250Z,22.53
2022-08-26T18:59:30.642Z,22.46
2022-08-26T19:04:32.195Z,22.48
2022-08-26T19:09:36.265Z,22.47
2022-08-26T19:14:38.004Z,22.43
2022-08-26T19:19:41.052Z,22.34
2022-08-26T19:24:42.757Z,22.29
2022-08-26T19:29:58.592Z,22.27
2022-08-26T19:35:05.545Z,22.22
2022-08-26T19:57:46.332Z,21.85
2022-08-26T20:02:49.453Z,21.81
2022-08-26T20:07:54.626Z,21.58
2022-08-26T20:13:12.441Z,21.63
2022-08-26T20:18:23.518Z,21.48
2022-08-26T20:23:24.966Z,21.45
2022-08-26T20:28:26.452Z,21.40
2022-08-26T20:33:46.523Z,21.35
2022-08-26T20:39:04.853Z,21.35
2022-08-26T20:44:07.485Z,21.29
2022-08-26T20:49:09.622Z,21.27
2022-08-26T20:54:19.828Z,21.35
2022-08-26T20:59:21.555Z,21.33
2022-08-26T21:04:25.675Z,21.32
2022-08-26T21:09:27.281Z,21.34
2022-08-26T21:14:29.953Z,21.37
2022-08-26T21:19:31.397Z,21.30
2022-08-26T21:24:32.994Z,21.20
2022-08-26T21:29:36.108Z,21.11
2022-08-26T21:34:37.548Z,21.02
2022-08-26T21:39:41.111Z,21.03
2022-08-26T21:44:42.602Z,20.94
2022-08-26T21:49:47.864Z,20.91
2022-08-26T21:54:49.939Z,20.89
2022-08-26T21:59:51.403Z,20.83
2022-08-26T22:04:52.813Z,20.78
2022-08-26T22:09:54.276Z,20.64
2022-08-26T22:14:55.762Z,20.65
2022-08-26T22:20:00.342Z,20.59
2022-08-26T22:25:01.735Z,20.54
2022-08-26T22:30:03.750Z,20.50
2022-08-26T22:35:17.594Z,20.35
2022-08-26T22:40:28.250Z,20.15
2022-08-26T22:45:30.892Z,20.03
2022-08-26T22:50:32.409Z,20.00
2022-08-26T22:55:33.890Z,19.99
2022-08-26T23:00:35.916Z,19.98
2022-08-26T23:05:39.084Z,19.86
2022-08-26T23:10:43.254Z,19.88
2022-08-26T23:15:45.477Z,19.91
2022-08-26T23:20:46.887Z,19.89
2022-08-26T23:25:48.334Z,19.79
2022-08-26T23:30:50.265Z,19.78
2022-08-26T23:35:51.659Z,19.78
2022-08-26T23:40:53.125Z,19.74
2022-08-26T23:45:57.011Z,19.65
2022-08-26T23:51:00.008Z,19.61
2022-08-26T23:56:01.523Z,19.61
